Terminal Aerodrome Forecast
Issued by NWS Wilmington, OH

Home | Current Version | Previous Version | Text Only | Print | Product List | Glossary On
Versions: 1 2 3 4 5 6 7 8 9 10 11 12 13 14 15 16 17 18 19
000
FTUS41 KILN 231522 AAC
TAFDAY
TAF AMD
KDAY 231522Z 2315/2412 22010G18KT 2SM SHRA VCTS OVC020CB
     FM232300 26006KT P6SM VCSH OVC040
     FM240300 34007KT P6SM BKN040
     FM240600 33005KT P6SM SCT250=

USA.gov is the U.S. government's official web portal to all federal, state and local government web resources and services.